Algocanada — CFN5193 — position and weather

sailwx.info

Track history (hours):
 
Tides and Currents Weather Stations Pressure Air Temp Water Temp Dewpoint Dewpoint Depression Visibility Wind Speed Wind Dir Waves Ship Positions

Algocanada

Last reported at 2018-May-18 08:16 UTC. Time now 2018-Jun-23 10:10 UTC.
Position N 45°26' W 083°12'.
Warning: this ship's position is 36 days out of date.

Length 130 m; draft 5.5 m.

Type: Ship. MMSI: 316013215.

Date/timePositionNaut miles runAvg speedWind from/ knotsBaromVisibWave heightAir tempDewpointWater temp
2018-May-18 08:16N 45°26' W 083°12'311.8
2018-May-18 08:00N 45°28' W 083°15'611.5
2018-May-18 07:30N 45°32' W 083°21'611.5
2018-May-18 06:59N 45°36' W 083°27'611.6
2018-May-18 06:26N 45°41' W 083°33'3 0.1
2018-May-16 12:00N 45°39' W 083°35'715.1
2018-May-16 11:30N 45°33' W 083°29'714.4
2018-May-16 11:00N 45°27' W 083°24'611.9
2018-May-16 10:30N 45°22' W 083°19'612.0
2018-May-16 10:01N 45°17' W 083°14'  
Track history (hours):
 
Tides and Currents Weather Stations Pressure Air Temp Water Temp Dewpoint Dewpoint Depression Visibility Wind Speed Wind Dir Waves Ship Positions

Algocanada

Last reported at 2018-May-18 08:16 UTC. Time now 2018-Jun-23 10:10 UTC.
Position N 45°26' W 083°12'.
Warning: this ship's position is 36 days out of date.

Length 130 m; draft 5.5 m.

Type: Ship. MMSI: 316013215.

Date/timePositionNaut miles runAvg speedWind from/ knotsBaromVisibWave heightAir tempDewpointWater temp
2018-May-18 08:16N 45°26' W 083°12'311.8
2018-May-18 08:00N 45°28' W 083°15'611.5
2018-May-18 07:30N 45°32' W 083°21'611.5
2018-May-18 06:59N 45°36' W 083°27'611.6
2018-May-18 06:26N 45°41' W 083°33'3 0.1
2018-May-16 12:00N 45°39' W 083°35'715.1
2018-May-16 11:30N 45°33' W 083°29'714.4
2018-May-16 11:00N 45°27' W 083°24'611.9
2018-May-16 10:30N 45°22' W 083°19'612.0
2018-May-16 10:01N 45°17' W 083°14'  

Dump ship's entire track history